Time;durP1;ratioP1;P1;durP2;ratioP2;P2;SDS_P1;SDS_P2;PMS_P1;PMS_P2;Temp;Humidity;BMP_temperature;BMP_pressure;BME280_temperature;BME280_humidity;BME280_pressure;Samples;Min_cycle;Max_cycle;Signal;HPM_P1;HPM_P2
2021/08/20 00:04:14;;;;;;;8.43;7.63;;;;;;;16.79;72.67;100435.06;263596;1095;114562;-71
2021/08/20 00:09:16;;;;;;;8.15;7.40;;;;;;;16.69;72.87;100439.85;263656;1096;114705;-71
2021/08/20 00:14:18;;;;;;;8.40;7.45;;;;;;;16.65;72.80;100440.23;263623;1096;115124;-72
2021/08/20 00:19:20;;;;;;;7.38;6.75;;;;;;;16.68;72.79;100449.70;263640;1095;114976;-71
2021/08/20 00:24:23;;;;;;;7.93;6.45;;;;;;;16.53;73.29;100451.61;263605;1096;114480;-71
2021/08/20 00:29:25;;;;;;;7.50;6.80;;;;;;;16.48;73.50;100448.70;263666;1095;114479;-69
2021/08/20 00:34:27;;;;;;;9.03;8.10;;;;;;;16.33;74.25;100451.41;263613;1095;114499;-71
2021/08/20 00:39:29;;;;;;;6.85;6.08;;;;;;;16.31;74.41;100443.61;263600;1096;114753;-70
2021/08/20 00:44:32;;;;;;;8.03;7.33;;;;;;;16.39;74.07;100440.82;263542;1095;114757;-70
2021/08/20 00:49:35;;;;;;;7.48;6.83;;;;;;;16.28;74.90;100441.31;263691;1095;114504;-69
2021/08/20 00:54:38;;;;;;;7.60;6.70;;;;;;;16.20;75.47;100446.77;263584;1095;114731;-69
2021/08/20 00:59:40;;;;;;;7.18;6.58;;;;;;;16.13;75.57;100440.53;263639;1096;114578;-72
2021/08/20 01:04:42;;;;;;;7.30;6.60;;;;;;;16.22;74.91;100443.91;263626;1095;115031;-70
2021/08/20 01:09:47;;;;;;;8.95;7.28;;;;;;;16.18;75.37;100446.12;263686;1095;115012;-71
2021/08/20 01:14:50;;;;;;;8.45;7.48;;;;;;;16.16;75.32;100456.16;263641;1095;114618;-70
2021/08/20 01:19:52;;;;;;;8.65;7.58;;;;;;;16.04;76.09;100465.66;263608;1096;114572;-69
2021/08/20 01:25:02;;;;;;;8.63;7.83;;;;;;;15.96;76.39;100465.77;263582;1095;114657;-70
2021/08/20 01:30:06;;;;;;;7.23;6.58;;;;;;;16.03;75.50;100461.32;263319;1096;114810;-71
2021/08/20 01:35:09;;;;;;;8.45;7.65;;;;;;;16.09;75.69;100455.25;263195;1095;114467;-69
2021/08/20 01:40:11;;;;;;;7.65;6.95;;;;;;;16.09;76.00;100460.59;263643;1096;114439;-71
2021/08/20 01:45:14;;;;;;;7.45;6.78;;;;;;;16.02;76.25;100460.50;263585;1096;114887;-71
2021/08/20 01:50:16;;;;;;;8.15;7.43;;;;;;;15.73;77.20;100469.38;263628;1095;114753;-71
2021/08/20 01:55:18;;;;;;;9.00;8.10;;;;;;;15.75;77.13;100458.52;263614;1095;114491;-69
2021/08/20 02:00:20;;;;;;;8.50;7.23;;;;;;;15.65;77.88;100464.14;263654;1096;114948;-71
2021/08/20 02:05:23;;;;;;;8.75;7.88;;;;;;;15.71;77.23;100462.56;263596;1095;114492;-70
2021/08/20 02:10:55;;;;;;;8.50;7.70;;;;;;;15.75;77.38;100460.45;225452;1220;636325;-70
2021/08/20 02:15:56;;;;;;;10.30;9.00;;;;;;;15.61;77.77;100457.66;226892;1208;137478;-72
2021/08/20 02:20:59;;;;;;;10.00;9.00;;;;;;;15.53;78.23;100452.46;226941;1206;137268;-70
2021/08/20 02:26:00;;;;;;;10.20;9.00;;;;;;;15.46;78.28;100453.91;227248;1209;137709;-69
2021/08/20 02:31:02;;;;;;;9.90;8.90;;;;;;;15.42;78.36;100452.92;226812;1209;138006;-69
2021/08/20 02:36:06;;;;;;;9.20;8.30;;;;;;;15.39;78.53;100454.60;226929;1208;137822;-71
2021/08/20 02:41:08;;;;;;;9.90;8.60;;;;;;;15.38;78.63;100452.36;226823;1210;137984;-71
2021/08/20 02:46:10;;;;;;;9.00;8.10;;;;;;;15.39;78.22;100454.56;226984;1208;137509;-69
2021/08/20 02:51:12;;;;;;;12.00;9.80;;;;;;;15.25;79.00;100455.14;226964;1208;137340;-70
2021/08/20 02:56:13;;;;;;;9.10;8.40;;;;;;;15.21;79.13;100463.30;226893;1209;138086;-69
2021/08/20 03:01:15;;;;;;;13.40;10.90;;;;;;;15.29;78.70;100464.48;226898;1208;138373;-67
2021/08/20 03:06:16;;;;;;;10.40;9.40;;;;;;;15.31;78.50;100465.17;226882;1208;138373;-69
2021/08/20 03:11:18;;;;;;;9.80;8.90;;;;;;;15.21;78.98;100470.09;226935;1208;137685;-70
2021/08/20 03:16:20;;;;;;;11.40;10.40;;;;;;;15.14;79.36;100464.70;226877;1208;137874;-70
2021/08/20 03:21:21;;;;;;;11.10;9.00;;;;;;;15.06;79.57;100462.41;226864;1206;138616;-70
2021/08/20 03:26:23;;;;;;;15.10;13.50;;;;;;;15.08;79.72;100466.45;226805;1208;138133;-70
2021/08/20 03:31:25;;;;;;;16.50;14.80;;;;;;;15.10;79.60;100464.48;226774;1206;138593;-70
2021/08/20 03:36:27;;;;;;;17.30;15.60;;;;;;;15.08;79.72;100463.98;226909;1209;138262;-70
2021/08/20 03:41:29;;;;;;;18.50;16.20;;;;;;;15.00;80.12;100465.05;226921;1209;138436;-69
2021/08/20 03:46:30;;;;;;;18.60;16.50;;;;;;;14.97;80.36;100466.13;226954;1208;138359;-69
2021/08/20 03:51:32;;;;;;;23.10;20.40;;;;;;;15.03;80.22;100467.92;226833;1209;139417;-70
2021/08/20 03:56:34;;;;;;;26.70;21.10;;;;;;;15.03;80.09;100462.61;226858;1209;138119;-70
2021/08/20 04:01:35;;;;;;;14.50;13.10;;;;;;;15.13;79.83;100458.06;226830;1201;137924;-69
2021/08/20 04:06:40;;;;;;;11.70;10.60;;;;;;;15.17;79.23;100462.14;227634;1205;138093;-69
2021/08/20 04:11:42;;;;;;;10.30;8.90;;;;;;;15.07;79.60;100464.77;227425;1205;139201;-72
2021/08/20 04:16:43;;;;;;;10.80;9.60;;;;;;;15.07;79.75;100467.30;227493;1205;138078;-70
2021/08/20 04:21:45;;;;;;;10.40;9.50;;;;;;;15.13;79.64;100469.93;227564;1205;138443;-71
2021/08/20 04:26:47;;;;;;;10.30;9.30;;;;;;;15.14;79.60;100469.86;227608;1205;137783;-70
2021/08/20 04:31:48;;;;;;;10.60;9.60;;;;;;;15.14;79.50;100476.21;227575;1205;137488;-71
2021/08/20 04:36:50;;;;;;;11.30;10.00;;;;;;;15.10;80.14;100475.25;227558;1205;137932;-67
2021/08/20 04:41:51;;;;;;;9.30;8.50;;;;;;;15.12;79.95;100474.96;227484;1205;138648;-71
2021/08/20 04:46:53;;;;;;;9.70;8.70;;;;;;;15.14;80.02;100482.04;227597;1203;138061;-69
2021/08/20 04:51:54;;;;;;;9.90;9.00;;;;;;;15.19;79.99;100482.33;227623;1205;138145;-71
2021/08/20 04:56:56;;;;;;;10.70;9.70;;;;;;;15.26;80.06;100480.83;227719;1205;137425;-72
2021/08/20 05:01:58;;;;;;;10.60;9.60;;;;;;;15.32;79.96;100475.84;227632;1205;139618;-69
2021/08/20 05:07:00;;;;;;;9.80;8.90;;;;;;;15.37;79.93;100470.83;227730;1205;138673;-71
2021/08/20 05:12:03;;;;;;;10.20;7.90;;;;;;;15.45;79.95;100470.05;227547;1205;138310;-70
2021/08/20 05:17:05;;;;;;;9.90;8.70;;;;;;;15.56;79.93;100472.49;228164;1204;138140;-71
2021/08/20 05:22:07;;;;;;;10.00;8.80;;;;;;;15.66;79.67;100469.89;227677;1205;137955;-72
2021/08/20 05:27:09;;;;;;;9.60;8.60;;;;;;;15.75;79.61;100475.02;227526;1205;139247;-70
2021/08/20 05:32:10;;;;;;;8.90;8.10;;;;;;;15.90;79.39;100469.29;227530;1206;140533;-71
2021/08/20 05:37:12;;;;;;;10.90;9.80;;;;;;;16.11;78.85;100478.95;227569;1198;137884;-69
2021/08/20 05:42:14;;;;;;;8.80;8.00;;;;;;;16.35;78.47;100480.81;227603;1201;138466;-69
2021/08/20 05:47:15;;;;;;;9.50;8.60;;;;;;;16.46;78.28;100474.34;227799;1205;138089;-70
2021/08/20 05:52:17;;;;;;;10.00;9.00;;;;;;;16.49;78.63;100481.34;227572;1199;137924;-72
2021/08/20 05:57:19;;;;;;;9.90;9.00;;;;;;;16.58;78.54;100489.35;227503;1203;138865;-71
2021/08/20 06:02:20;;;;;;;8.40;7.40;;;;;;;16.71;78.33;100493.16;227370;1203;138608;-72
2021/08/20 06:07:22;;;;;;;8.80;7.80;;;;;;;16.83;77.80;100494.27;227590;1205;138115;-71
2021/08/20 06:12:24;;;;;;;11.20;7.10;;;;;;;17.05;76.80;100491.84;227765;1198;137987;-73
2021/08/20 06:17:26;;;;;;;8.70;7.80;;;;;;;17.12;76.52;100495.67;227445;1206;137816;-73
2021/08/20 06:22:27;;;;;;;9.80;8.30;;;;;;;17.13;76.72;100491.27;227450;1205;137442;-71
2021/08/20 06:27:29;;;;;;;12.40;9.80;;;;;;;17.13;76.83;100498.42;227672;1205;138845;-71
2021/08/20 06:32:45;;;;;;;8.80;8.00;;;;;;;17.24;76.94;100505.91;227375;1205;140178;-74
2021/08/20 06:37:46;;;;;;;11.00;9.80;;;;;;;17.33;76.95;100505.75;227996;1198;137882;-74
2021/08/20 06:42:48;;;;;;;9.00;8.20;;;;;;;17.44;76.63;100509.45;227767;1203;138168;-72
2021/08/20 06:47:49;;;;;;;8.70;7.80;;;;;;;17.43;76.63;100515.30;227647;1205;137860;-72
2021/08/20 06:52:51;;;;;;;8.60;7.20;;;;;;;17.44;76.75;100519.13;227499;1206;138399;-73
2021/08/20 06:57:52;;;;;;;8.30;7.50;;;;;;;17.48;76.39;100514.92;227553;1205;138984;-71
2021/08/20 07:02:54;;;;;;;8.10;7.30;;;;;;;17.61;76.25;100510.27;227530;1205;138146;-70
2021/08/20 07:07:56;;;;;;;8.80;8.00;;;;;;;17.62;75.25;100513.41;227576;1198;137587;-71
2021/08/20 07:12:58;;;;;;;7.10;6.40;;;;;;;17.54;74.99;100518.99;227675;1205;138532;-71
2021/08/20 07:17:59;;;;;;;6.20;5.60;;;;;;;17.60;74.96;100526.80;227483;1206;139935;-70
2021/08/20 07:23:01;;;;;;;7.30;6.40;;;;;;;17.64;74.94;100537.89;227629;1198;137800;-70
2021/08/20 07:28:03;;;;;;;7.70;7.00;;;;;;;17.65;74.21;100538.44;227673;1205;137984;-69
2021/08/20 07:33:05;;;;;;;7.10;6.30;;;;;;;17.70;74.15;100544.63;227710;1205;140885;-70
2021/08/20 07:38:07;;;;;;;8.90;6.20;;;;;;;17.69;74.66;100548.21;227349;1198;138556;-71
2021/08/20 07:43:09;;;;;;;7.20;6.50;;;;;;;17.76;74.50;100547.38;227552;1205;138500;-70
2021/08/20 07:48:12;;;;;;;6.40;5.80;;;;;;;17.78;74.77;100554.05;227563;1201;138729;-72
2021/08/20 07:53:17;;;;;;;5.90;5.40;;;;;;;17.74;75.01;100558.81;227367;1203;137497;-71
2021/08/20 07:58:19;;;;;;;6.30;5.80;;;;;;;17.82;75.19;100560.95;227623;1205;137460;-73
2021/08/20 08:03:21;;;;;;;6.40;5.80;;;;;;;17.85;74.64;100561.09;227533;1205;138446;-72
2021/08/20 08:08:23;;;;;;;5.90;5.30;;;;;;;17.80;73.97;100559.90;227565;1204;138703;-72
2021/08/20 08:13:25;;;;;;;6.10;5.50;;;;;;;17.88;74.34;100563.33;227638;1199;138501;-71
2021/08/20 08:18:26;;;;;;;6.60;5.80;;;;;;;18.07;73.99;100560.32;227523;1205;137763;-72
2021/08/20 08:23:28;;;;;;;6.50;5.90;;;;;;;18.14;73.31;100564.27;227353;1206;138573;-71
2021/08/20 08:28:30;;;;;;;6.50;5.90;;;;;;;18.19;73.03;100561.81;227432;1205;138578;-72
2021/08/20 08:33:31;;;;;;;6.40;5.60;;;;;;;18.32;72.66;100561.70;227497;1205;140199;-76
2021/08/20 08:38:33;;;;;;;7.20;5.70;;;;;;;18.44;73.06;100555.11;227563;1198;137662;-71
2021/08/20 08:43:35;;;;;;;6.10;5.50;;;;;;;18.44;72.67;100557.22;227510;1206;138380;-74
2021/08/20 08:48:40;;;;;;;6.20;5.60;;;;;;;18.39;72.54;100557.25;227579;1204;138112;-72
2021/08/20 08:53:42;;;;;;;;;;;;;;;18.42;72.27;100554.25;227638;1205;137522;-70
2021/08/20 08:58:43;;;;;;;9.30;8.20;;;;;;;18.38;72.47;100562.10;227607;1205;124423;-71
2021/08/20 09:03:45;;;;;;;6.70;5.60;;;;;;;18.42;72.98;100565.08;227430;1206;138581;-72
2021/08/20 09:09:03;;;;;;;5.50;5.00;;;;;;;18.49;72.32;100568.36;227552;1195;138664;-72
2021/08/20 09:14:07;;;;;;;6.00;5.40;;;;;;;18.50;71.99;100571.94;227681;1205;137761;-73
2021/08/20 09:19:19;;;;;;;5.60;5.10;;;;;;;18.69;71.49;100572.63;227815;1198;137697;-72
2021/08/20 09:24:38;;;;;;;12.90;6.20;;;;;;;18.75;71.68;100568.42;227675;1205;137467;-74
2021/08/20 09:30:04;;;;;;;9.40;5.40;;;;;;;18.92;71.01;100568.91;227783;1198;140098;-72
2021/08/20 09:35:06;;;;;;;7.40;4.80;;;;;;;19.10;70.42;100572.36;227999;1198;137924;-72
2021/08/20 09:40:11;;;;;;;12.80;11.30;;;;;;;19.40;69.67;100569.03;227660;1205;137900;-74
2021/08/20 09:45:20;;;;;;;6.30;5.70;;;;;;;19.47;69.49;100566.36;227672;1204;137725;-72
2021/08/20 09:50:39;;;;;;;8.50;7.80;;;;;;;19.46;69.31;100559.34;227501;1198;137461;-72
2021/08/20 09:55:42;;;;;;;6.00;5.40;;;;;;;19.43;70.64;100559.59;227578;1205;141324;-74
2021/08/20 10:00:45;;;;;;;7.00;6.30;;;;;;;19.61;69.40;100554.39;228133;1198;138213;-72
2021/08/20 10:05:50;;;;;;;9.70;6.90;;;;;;;19.63;68.70;100553.83;227481;1199;137628;-74
2021/08/20 10:10:54;;;;;;;7.00;6.40;;;;;;;19.57;69.09;100551.38;227560;1205;137714;-73
2021/08/20 10:16:00;;;;;;;7.60;6.80;;;;;;;19.86;68.93;100549.23;227665;1200;137802;-72
2021/08/20 10:21:02;;;;;;;6.70;6.00;;;;;;;20.43;67.73;100539.56;228293;1197;139128;-73
2021/08/20 10:26:06;;;;;;;8.60;6.10;;;;;;;20.74;66.96;100538.30;228580;1204;138072;-73
2021/08/20 10:31:10;;;;;;;6.20;5.70;;;;;;;20.83;66.02;100540.27;227758;1204;138334;-72
2021/08/20 10:36:12;;;;;;;8.20;6.60;;;;;;;20.79;65.36;100539.09;228056;1204;139111;-72
2021/08/20 10:41:14;;;;;;;6.30;5.80;;;;;;;20.61;65.68;100534.94;227576;1204;137664;-73
2021/08/20 10:46:31;;;;;;;6.60;6.10;;;;;;;20.65;66.05;100532.34;227802;1205;138522;-72
2021/08/20 10:51:51;;;;;;;7.70;7.00;;;;;;;20.80;65.85;100529.79;227683;1204;138519;-76
2021/08/20 10:56:53;;;;;;;6.20;5.70;;;;;;;20.68;65.64;100531.35;227984;1197;139408;-73
2021/08/20 11:02:23;;;;;;;6.20;5.70;;;;;;;20.51;65.18;100527.80;227785;1197;138388;-76
2021/08/20 11:07:34;;;;;;;8.00;6.10;;;;;;;20.92;64.07;100528.21;228198;1198;138670;-72
2021/08/20 11:12:46;;;;;;;6.10;5.60;;;;;;;21.20;63.12;100529.27;228097;1198;137942;-75
2021/08/20 11:17:51;;;;;;;6.20;5.60;;;;;;;21.49;62.65;100523.40;228042;1205;139292;-72
2021/08/20 11:23:07;;;;;;;6.30;5.40;;;;;;;21.29;62.95;100518.01;227597;1205;137620;-73
2021/08/20 11:28:32;;;;;;;6.50;5.90;;;;;;;20.90;64.02;100517.97;227583;1205;138122;-70
2021/08/20 11:33:35;;;;;;;6.60;5.90;;;;;;;21.14;63.77;100514.25;227664;1197;138349;-72
2021/08/20 11:38:43;;;;;;;7.50;5.70;;;;;;;21.11;64.68;100511.04;227645;1204;138113;-74
2021/08/20 11:43:47;;;;;;;6.20;5.60;;;;;;;21.36;63.64;100511.52;228209;1205;137925;-71
2021/08/20 11:48:51;;;;;;;7.30;6.60;;;;;;;21.75;62.11;100511.62;227686;1205;138246;-73
2021/08/20 11:53:57;;;;;;;6.50;5.60;;;;;;;21.52;62.22;100508.60;227911;1197;138119;-73
2021/08/20 11:59:11;;;;;;;8.20;5.90;;;;;;;21.71;62.14;100503.14;227730;1198;137830;-72
2021/08/20 12:04:12;;;;;;;7.60;5.80;;;;;;;21.83;61.76;100502.59;227643;1198;138206;-74
2021/08/20 12:09:18;;;;;;;5.70;5.20;;;;;;;22.34;60.57;100493.11;227621;1198;137870;-74
2021/08/20 12:14:22;;;;;;;13.30;7.00;;;;;;;22.96;58.46;100485.05;228037;1197;137597;-71
2021/08/20 12:19:27;;;;;;;6.60;5.80;;;;;;;23.25;56.74;100484.20;227797;1205;138172;-72
2021/08/20 12:24:36;;;;;;;5.70;5.10;;;;;;;23.24;55.10;100474.88;227699;1204;137737;-72
2021/08/20 12:29:38;;;;;;;5.00;4.60;;;;;;;22.26;58.97;100478.88;227631;1205;137763;-72
2021/08/20 12:34:41;;;;;;;5.50;5.00;;;;;;;21.93;60.53;100479.95;227691;1204;137535;-72
2021/08/20 12:39:43;;;;;;;6.50;5.90;;;;;;;21.89;60.85;100472.80;227707;1204;137943;-72
2021/08/20 12:44:45;;;;;;;5.40;4.60;;;;;;;22.04;60.75;100470.87;227756;1198;137932;-74
2021/08/20 12:50:06;;;;;;;5.80;5.20;;;;;;;22.19;60.25;100465.39;227732;1205;137757;-71
2021/08/20 12:55:26;;;;;;;5.10;4.70;;;;;;;22.53;59.67;100459.46;227816;1205;137596;-73
2021/08/20 13:00:31;;;;;;;5.80;5.30;;;;;;;22.57;59.18;100454.41;227866;1205;138368;-73
2021/08/20 13:05:33;;;;;;;5.60;5.00;;;;;;;22.12;60.79;100457.89;228152;1198;137529;-74
2021/08/20 13:10:35;;;;;;;6.90;6.20;;;;;;;21.84;61.11;100461.71;228035;1204;137900;-72
2021/08/20 13:15:39;;;;;;;5.30;4.80;;;;;;;21.63;61.88;100460.31;227753;1205;137534;-71
2021/08/20 13:20:46;;;;;;;8.40;4.20;;;;;;;21.77;60.65;100454.30;227851;1204;138413;-70
2021/08/20 13:25:48;;;;;;;4.20;3.90;;;;;;;21.91;59.29;100454.55;227983;1198;137667;-71
2021/08/20 13:30:50;;;;;;;4.10;3.70;;;;;;;21.98;59.49;100453.23;227673;1204;138115;-71
2021/08/20 13:35:51;;;;;;;4.40;4.00;;;;;;;22.08;59.43;100444.41;227678;1205;137964;-74
2021/08/20 13:40:53;;;;;;;4.30;3.90;;;;;;;22.19;59.36;100440.76;227654;1204;137866;-72
2021/08/20 13:45:54;;;;;;;4.60;4.20;;;;;;;22.01;59.95;100435.84;227670;1201;138660;-71
2021/08/20 13:50:57;;;;;;;6.70;4.80;;;;;;;22.08;60.23;100429.50;227607;1198;137915;-69
2021/08/20 13:55:58;;;;;;;9.90;5.20;;;;;;;22.37;59.67;100424.60;227705;1205;140021;-73
2021/08/20 14:01:00;;;;;;;6.70;5.70;;;;;;;22.44;59.20;100426.08;227595;1204;137975;-71
2021/08/20 14:06:02;;;;;;;5.20;4.60;;;;;;;22.44;59.83;100419.11;227664;1198;137818;-70
2021/08/20 14:11:07;;;;;;;5.50;4.70;;;;;;;22.35;59.62;100422.15;227829;1205;138478;-70
2021/08/20 14:16:09;;;;;;;6.70;6.10;;;;;;;22.15;59.42;100426.15;227645;1204;138632;-71
2021/08/20 14:21:10;;;;;;;5.60;5.20;;;;;;;22.24;59.84;100424.95;227677;1198;139166;-72
2021/08/20 14:26:12;;;;;;;5.00;4.60;;;;;;;22.04;60.28;100423.58;227554;1205;137964;-72
2021/08/20 14:31:14;;;;;;;5.90;4.80;;;;;;;22.08;61.25;100429.46;227605;1205;138103;-72
2021/08/20 14:36:15;;;;;;;4.60;3.70;;;;;;;22.19;59.17;100423.79;227569;1205;137738;-69
2021/08/20 14:41:17;;;;;;;4.40;4.00;;;;;;;22.10;60.50;100422.14;227613;1197;137665;-71
2021/08/20 14:46:19;;;;;;;4.70;4.30;;;;;;;22.02;60.26;100420.79;227648;1205;137858;-70
2021/08/20 14:51:21;;;;;;;5.80;4.20;;;;;;;22.08;59.30;100411.91;227573;1205;137786;-71
2021/08/20 14:56:22;;;;;;;4.30;3.50;;;;;;;22.50;58.59;100406.98;227606;1205;137956;-72
2021/08/20 15:01:24;;;;;;;5.40;3.30;;;;;;;22.81;57.36;100397.39;227711;1205;138804;-72
2021/08/20 15:06:26;;;;;;;5.20;4.20;;;;;;;22.54;56.90;100399.32;227608;1205;137977;-72
2021/08/20 15:11:28;;;;;;;5.70;3.60;;;;;;;22.22;58.69;100399.54;227763;1205;138446;-73
2021/08/20 15:16:30;;;;;;;5.10;3.90;;;;;;;22.08;58.85;100402.50;227655;1205;139099;-72
2021/08/20 15:21:32;;;;;;;5.60;3.40;;;;;;;22.06;59.24;100401.06;227653;1205;139052;-71
2021/08/20 15:26:35;;;;;;;5.30;3.90;;;;;;;21.94;59.24;100409.43;227656;1198;137873;-71
2021/08/20 15:31:37;;;;;;;3.50;3.20;;;;;;;21.92;58.75;100407.27;227619;1198;137658;-71
2021/08/20 15:36:38;;;;;;;3.50;3.30;;;;;;;21.72;59.15;100406.77;227759;1205;139005;-69
2021/08/20 15:41:41;;;;;;;3.80;3.40;;;;;;;21.65;58.94;100405.41;227625;1204;138088;-69
2021/08/20 15:46:43;;;;;;;5.50;4.10;;;;;;;21.56;60.12;100402.91;227274;1205;138027;-70
2021/08/20 15:51:45;;;;;;;5.60;4.00;;;;;;;21.44;60.75;100405.20;227361;1205;137859;-69
2021/08/20 15:56:46;;;;;;;3.80;3.50;;;;;;;21.33;61.29;100401.21;227290;1204;138045;-69
2021/08/20 16:01:48;;;;;;;5.90;4.00;;;;;;;21.27;62.14;100402.59;227142;1204;138303;-68
2021/08/20 16:06:50;;;;;;;12.50;5.10;;;;;;;21.26;62.48;100403.52;227405;1205;138762;-67
2021/08/20 16:11:51;;;;;;;5.10;4.50;;;;;;;21.28;62.67;100403.10;227323;1205;138418;-70
2021/08/20 16:16:53;;;;;;;5.20;4.20;;;;;;;21.25;63.67;100415.80;226699;1204;137811;-70
2021/08/20 16:21:55;;;;;;;4.90;4.40;;;;;;;21.03;62.65;100425.43;227262;1206;137546;-72
2021/08/20 16:26:58;;;;;;;5.70;4.50;;;;;;;20.74;63.75;100431.70;226797;1206;137639;-69
2021/08/20 16:32:00;;;;;;;4.80;4.20;;;;;;;20.66;64.61;100432.07;227217;1201;138115;-69
2021/08/20 16:37:02;;;;;;;11.00;7.10;;;;;;;20.60;65.90;100432.16;227122;1206;137944;-70
2021/08/20 16:42:04;;;;;;;11.70;6.10;;;;;;;20.14;71.36;100432.90;227363;1198;138965;-69
2021/08/20 16:47:08;;;;;;;7.20;6.50;;;;;;;19.63;75.40;100440.14;226957;1206;139478;-73
2021/08/20 16:52:10;;;;;;;7.90;5.70;;;;;;;19.61;76.47;100441.50;226799;1206;138064;-70
2021/08/20 16:57:11;;;;;;;6.80;6.20;;;;;;;19.64;76.97;100444.44;227147;1206;138229;-69
2021/08/20 17:02:14;;;;;;;6.90;6.20;;;;;;;19.61;77.57;100441.63;227285;1207;137866;-71
2021/08/20 17:07:16;;;;;;;7.60;5.50;;;;;;;19.58;77.42;100440.67;226967;1207;138325;-74
2021/08/20 17:12:18;;;;;;;7.60;5.80;;;;;;;19.52;77.58;100445.91;226821;1206;138093;-69
2021/08/20 17:17:19;;;;;;;6.60;5.80;;;;;;;19.41;77.98;100447.80;226915;1207;139198;-69
2021/08/20 17:22:21;;;;;;;6.10;5.50;;;;;;;19.30;77.56;100454.51;227368;1206;137545;-69
2021/08/20 17:27:23;;;;;;;5.20;4.80;;;;;;;19.29;75.51;100467.08;227143;1206;139460;-72
2021/08/20 17:32:24;;;;;;;5.40;4.80;;;;;;;19.27;73.75;100476.73;226713;1206;138358;-68
2021/08/20 17:37:27;;;;;;;5.60;4.10;;;;;;;19.16;72.13;100493.06;226701;1207;137841;-68
2021/08/20 17:42:28;;;;;;;4.80;4.20;;;;;;;18.92;72.91;100503.58;227278;1206;138236;-68
2021/08/20 17:47:30;;;;;;;6.20;5.30;;;;;;;18.81;74.07;100519.41;227039;1206;138485;-69
2021/08/20 17:52:32;;;;;;;4.80;4.40;;;;;;;18.51;75.63;100541.57;226712;1206;138540;-69
2021/08/20 17:57:33;;;;;;;6.40;5.80;;;;;;;18.23;76.53;100556.02;227033;1194;139523;-68
2021/08/20 18:02:37;;;;;;;3.10;2.70;;;;;;;18.17;75.51;100565.34;227224;1207;139234;-69
2021/08/20 18:07:39;;;;;;;2.10;2.00;;;;;;;18.02;73.05;100575.30;226940;1207;138260;-69
2021/08/20 18:12:41;;;;;;;1.40;1.30;;;;;;;17.81;73.13;100577.80;226594;1206;138557;-69
2021/08/20 18:17:43;;;;;;;1.70;1.40;;;;;;;17.66;73.91;100580.79;226856;1206;138004;-69
2021/08/20 18:22:44;;;;;;;1.60;1.50;;;;;;;17.60;73.68;100577.70;227260;1207;137633;-68
2021/08/20 18:27:47;;;;;;;1.30;1.20;;;;;;;17.50;74.59;100583.64;227071;1206;138770;-70
2021/08/20 18:32:49;;;;;;;1.50;1.40;;;;;;;17.39;75.96;100596.77;226743;1206;139338;-69
2021/08/20 18:37:50;;;;;;;2.50;2.10;;;;;;;17.27;76.12;100601.81;226775;1202;139549;-72
2021/08/20 18:42:52;;;;;;;1.20;1.10;;;;;;;17.20;76.17;100596.61;227226;1207;139655;-67
2021/08/20 18:47:55;;;;;;;1.20;1.10;;;;;;;17.16;76.43;100595.59;227144;1207;137873;-69
2021/08/20 18:52:56;;;;;;;1.50;1.40;;;;;;;17.25;76.92;100595.63;226934;1203;138614;-68
2021/08/20 18:57:59;;;;;;;2.60;2.00;;;;;;;17.47;76.28;100585.42;226932;1207;140150;-69
2021/08/20 19:03:01;;;;;;;2.60;1.70;;;;;;;17.55;76.53;100579.80;227263;1199;139714;-68
2021/08/20 19:08:03;;;;;;;1.40;1.30;;;;;;;17.59;76.49;100591.48;227238;1206;139709;-69
2021/08/20 19:13:08;;;;;;;4.30;3.90;;;;;;;17.42;77.61;100600.71;226981;1206;137831;-69
2021/08/20 19:18:10;;;;;;;4.00;3.20;;;;;;;17.24;78.89;100601.01;227085;1198;139185;-68
2021/08/20 19:23:11;;;;;;;3.90;3.60;;;;;;;17.12;79.45;100602.05;227296;1206;139968;-71
2021/08/20 19:28:13;;;;;;;5.30;4.70;;;;;;;17.16;79.22;100589.67;227210;1206;138838;-69
2021/08/20 19:33:15;;;;;;;3.40;3.10;;;;;;;17.24;79.02;100581.90;226827;1198;139198;-69
2021/08/20 19:38:17;;;;;;;2.90;2.70;;;;;;;17.10;79.56;100583.26;226795;1207;137982;-68
2021/08/20 19:43:18;;;;;;;3.40;2.90;;;;;;;17.08;79.28;100571.98;227284;1207;138515;-70
2021/08/20 19:48:20;;;;;;;2.80;2.60;;;;;;;17.12;79.28;100567.77;227083;1206;138509;-69
2021/08/20 19:53:22;;;;;;;3.60;2.90;;;;;;;17.00;80.06;100576.08;226701;1203;138821;-69
2021/08/20 19:58:23;;;;;;;3.50;3.10;;;;;;;16.97;80.54;100583.91;226988;1206;139252;-66
2021/08/20 20:03:25;;;;;;;3.60;3.30;;;;;;;16.84;80.90;100590.83;227167;1207;138940;-69
2021/08/20 20:08:27;;;;;;;3.50;3.20;;;;;;;16.74;81.20;100602.73;227151;1208;137994;-69
2021/08/20 20:13:28;;;;;;;3.90;3.40;;;;;;;16.68;81.09;100608.48;226863;1206;139908;-70
2021/08/20 20:18:30;;;;;;;4.70;4.20;;;;;;;16.59;81.35;100614.98;226967;1206;139057;-71
2021/08/20 20:23:32;;;;;;;4.90;4.40;;;;;;;16.61;81.24;100619.77;227187;1207;139120;-68
2021/08/20 20:28:33;;;;;;;4.90;3.90;;;;;;;16.52;81.50;100613.25;227229;1206;138176;-68
2021/08/20 20:33:35;;;;;;;4.30;3.70;;;;;;;16.50;81.82;100609.91;226984;1198;137839;-69
2021/08/20 20:38:37;;;;;;;4.70;4.20;;;;;;;16.42;82.04;100616.74;226930;1206;138378;-69
2021/08/20 20:43:40;;;;;;;4.70;4.10;;;;;;;16.37;82.02;100616.38;227409;1207;138673;-70
2021/08/20 20:48:42;;;;;;;4.90;4.50;;;;;;;16.38;81.80;100615.80;227472;1202;138709;-72
2021/08/20 20:53:44;;;;;;;5.30;4.50;;;;;;;16.29;82.03;100611.93;227017;1208;138867;-71
2021/08/20 20:58:45;;;;;;;4.80;4.40;;;;;;;16.26;82.33;100614.94;227153;1205;140356;-72
2021/08/20 21:03:47;;;;;;;5.30;4.80;;;;;;;16.24;82.02;100625.48;227378;1199;137805;-74
2021/08/20 21:08:49;;;;;;;6.10;5.10;;;;;;;16.07;82.58;100628.62;227601;1206;137801;-72
2021/08/20 21:13:52;;;;;;;5.50;4.90;;;;;;;15.91;83.00;100628.38;227361;1207;138255;-71
2021/08/20 21:18:53;;;;;;;6.70;5.30;;;;;;;15.92;82.90;100633.57;227328;1207;138501;-72
2021/08/20 21:23:55;;;;;;;5.30;4.80;;;;;;;15.91;82.66;100637.21;227408;1207;138707;-69
2021/08/20 21:28:57;;;;;;;4.90;4.50;;;;;;;15.86;82.57;100640.23;227523;1205;138022;-72
2021/08/20 21:33:58;;;;;;;5.20;4.70;;;;;;;15.83;82.40;100639.81;227245;1207;137916;-71
2021/08/20 21:39:00;;;;;;;5.40;4.90;;;;;;;15.77;82.47;100638.02;227233;1203;137692;-73
2021/08/20 21:44:03;;;;;;;6.60;5.40;;;;;;;15.72;82.71;100646.46;227313;1207;139161;-73
2021/08/20 21:49:06;;;;;;;4.80;4.40;;;;;;;15.71;82.70;100646.39;227669;1198;139394;-73
2021/08/20 21:54:07;;;;;;;5.30;4.80;;;;;;;15.74;82.38;100646.86;227323;1207;139120;-71
2021/08/20 21:59:09;;;;;;;5.70;5.00;;;;;;;15.81;82.03;100644.60;227285;1203;138627;-71
2021/08/20 22:04:11;;;;;;;4.80;4.30;;;;;;;15.95;81.29;100644.84;227423;1207;139263;-71
2021/08/20 22:09:13;;;;;;;5.70;5.10;;;;;;;15.91;81.04;100643.88;227420;1203;138077;-71
2021/08/20 22:14:14;;;;;;;5.40;4.90;;;;;;;15.72;81.47;100645.14;227439;1199;138747;-73
2021/08/20 22:19:16;;;;;;;5.30;4.80;;;;;;;15.63;81.90;100648.14;227989;1207;138564;-72
2021/08/20 22:24:17;;;;;;;5.30;4.80;;;;;;;15.65;81.45;100652.60;227385;1207;138816;-71
2021/08/20 22:29:20;;;;;;;4.80;4.40;;;;;;;15.55;81.82;100660.52;227680;1206;138369;-71
2021/08/20 22:34:22;;;;;;;4.70;4.10;;;;;;;15.52;81.85;100667.02;227922;1199;138757;-72
2021/08/20 22:39:23;;;;;;;5.00;4.00;;;;;;;15.44;81.97;100671.89;227627;1207;137632;-71
2021/08/20 22:44:25;;;;;;;5.60;5.00;;;;;;;15.30;82.57;100677.75;227407;1199;137599;-71
2021/08/20 22:49:26;;;;;;;5.00;4.60;;;;;;;15.26;82.63;100678.17;227512;1206;138652;-70
2021/08/20 22:54:28;;;;;;;4.70;4.30;;;;;;;15.20;82.63;100682.06;227389;1206;138435;-71